ADDS METAR Data INFO
IDs: Format: Raw Decoded Include TAF

Data at: 0644 UTC 23 Feb 2018

KAIA 230553Z AUTO 27007KT 10SM CLR M18/M19 A3005 RMK AO2 SLP244 I1000 I6000 T11831194 11061 21183 50004
KAIA 230453Z AUTO 29008KT 10SM CLR M17/M18 A3005 RMK AO2 SLP242 I1000 T11721183
KAIA 230353Z AUTO 27007KT 10SM CLR M16/M16 A3004 RMK AO2 SLP238 I1000 T11561161
KAIA 230253Z AUTO 26003KT 10SM CLR M12/M13 A3004 RMK AO2 SLP233 I1000 I3000 T11221128 51013
KAIA 230153Z AUTO 21004KT 10SM CLR M11/M11 A3003 RMK AO2 SLP231 T11111111
KAIA 230125Z AUTO 19007KT 10SM SCT021 M09/M11 A3003 RMK AO2 T10941106
KAIA 230053Z AUTO 18007KT 10SM OVC021 M07/M08 A3001 RMK AO2 SLP222 T10721083
KAIA 222353Z AUTO 17006KT 10SM OVC019 M06/M09 A2999 RMK AO2 SLP218 60000 T10611089 11056 21072 53002
KAIA 222306Z AUTO 21005KT 10SM BKN021 OVC090 M06/M08 A2999 RMK AO2 T10611083
KAIA 222253Z AUTO 23004KT 10SM SCT021 BKN090 M06/M08 A2999 RMK AO2 SNE33 SLP220 P0000 T10611078
KAIA 222244Z AUTO 23006KT 10SM SCT019 BKN090 M06/M08 A3000 RMK AO2 SNE33 P0000 T10611078
KAIA 222235Z AUTO 22004KT 6SM BR BKN022 BKN031 OVC110 M06/M08 A2999 RMK AO2 SNE33 P0000 T10611078
KAIA 222216Z AUTO 20003KT 2SM -SN BR OVC027 M06/M08 A2999 RMK AO2 P0000 T10611083
KAIA 222209Z AUTO 23006KT 1 3/4SM -SN BR BKN027 OVC036 M06/M08 A2999 RMK AO2 P0000 T10611078
KAIA 222159Z AUTO 22005KT 2 1/2SM -SN BR FEW015 BKN029 OVC034 M06/M08 A2999 RMK AO2 P0000 T10611078
KAIA 222153Z AUTO 20004KT 3SM -SN BR FEW015 BKN032 OVC043 M06/M08 A2999 RMK AO2 SNE03B38 SLP213 P0000 T10611083
KAIA 222128Z AUTO 22005KT 10SM SCT014 BKN047 OVC055 M06/M08 A2999 RMK AO2 SNE03 P0000 T10611083
KAIA 222117Z AUTO 22007KT 10SM BKN015 OVC060 M06/M08 A2999 RMK AO2 SNE03 P0000 T10611083
KAIA 222107Z AUTO 23007KT 9SM BKN013 BKN019 OVC070 M06/M08 A2999 RMK AO2 SNE03 P0000 T10611083
KAIA 222053Z AUTO 21006KT 4SM -SN BR SCT012 BKN021 OVC029 M06/M08 A2999 RMK AO2 SNB1958 SLP213 P0000 60000 T10611083 55012
KAIA 222049Z AUTO 19005KT 4SM -SN BR FEW012 BKN021 OVC034 M06/M08 A2998 RMK AO2 SNB1958 P0000
KAIA 222038Z AUTO 20006KT 2SM -SN BR FEW012 BKN022 OVC030 M06/M08 A2999 RMK AO2 SNB1958 P0000 T10611083
KAIA 222017Z AUTO 17006KT 1 3/4SM -SN BR BKN027 BKN033 OVC040 M07/M08 A2999 RMK AO2 SNB1958 P0000 T10671083
KAIA 222013Z AUTO 17007KT 2SM -SN BR BKN032 OVC039 M07/M08 A2999 RMK AO2 SNB1958 P0000 T10671083
KAIA 221953Z AUTO 16008KT 10SM FEW032 BKN042 OVC060 M06/M09 A3000 RMK AO2 SNE29B36E47 SLP217 P0000 T10611089
KAIA 221930Z AUTO 17009KT 9SM FEW026 BKN030 OVC041 M06/M09 A3001 RMK AO2 SNE29 P0000 T10611089
KAIA 221909Z AUTO 18011KT 3SM -SN BR BKN028 BKN033 OVC043 M07/M08 A3002 RMK AO2 P0000 T10671083
KAIA 221903Z AUTO 18010KT 2 1/2SM -SN BR BKN031 BKN040 OVC049 M07/M08 A3002 RMK AO2 P0000 T10671083
KAIA 221853Z AUTO 17009KT 4SM -SN BR BKN037 OVC050 M07/M09 A3003 RMK AO2 SLP226 P0000 T10671089
KAIA 221840Z AUTO 17012KT 5SM -SN BR FEW030 BKN034 OVC050 M07/M09 A3004 RMK AO2 P0000 T10671089
KAIA 221827Z AUTO 17011KT 2SM -SN BR BKN030 OVC039 M07/M08 A3005 RMK AO2 P0000 T10671083
KAIA 221804Z AUTO 17010KT 3SM -SN BR FEW030 BKN036 OVC048 M07/M09 A3006 RMK AO2 P0000 T10721089
KAIA 221753Z AUTO 17011KT 4SM -SN BR BKN029 BKN040 OVC050 M07/M09 A3006 RMK AO2 SLP237 P0000 60000 T10721089 11067 21167 58013
KAIA 221709Z AUTO 17010KT 3SM -SN BR BKN018 OVC023 M07/M09 A3009 RMK AO2 P0000 T10721089
KAIA 221653Z AUTO 16011KT 2 1/2SM -SN BR OVC016 M08/M09 A3009 RMK AO2 SNB21 SLP245 P0000 T10781094
KAIA 221553Z AUTO 17014KT 10SM OVC016 M08/M10 A3010 RMK AO2 SNE1456 SLP251 P0000 T10831100
KAIA 221453Z AUTO 13004KT 6SM -SN BR OVC015 M10/M11 A3011 RMK AO2 SNB10 SLP256 P0000 60000 T11001111 55001
KAIA 221353Z AUTO 00000KT 10SM OVC015 M12/M13 A3010 RMK AO2 SLP255 T11221133 $
KAIA 221253Z AUTO 00000KT 10SM OVC015 M14/M14 A3010 RMK AO2 SLP257 T11391144 $
KAIA 221153Z AUTO 00000KT 10SM BKN025 M17/M18 A3011 RMK AO2 SLP260 I1000 I6000 T11671178 11117 21172 55012 $
KAIA 221053Z AUTO 16005KT 10SM CLR M17/M18 A3010 RMK AO2 SLP253 T11721178 $
KAIA 220953Z AUTO 16010KT 10SM CLR M16/M16 A3012 RMK AO2 SLP258 T11561161 $
KAIA 220853Z AUTO 16010KT 10SM CLR M15/M17 A3015 RMK AO2 SLP268 T11501167 58013 $
KAIA 220753Z AUTO 16009KT 10SM CLR M15/M17 A3018 RMK AO2 SLP277 T11501167 $
KAIA 220653Z AUTO 16005KT 10SM BKN120 M14/M16 A3019 RMK AO2 SLP279 T11391156 410331328 $
KAIA 220553Z AUTO 14009KT 10SM BKN120 M12/M14 A3019 RMK AO2 SLP284 T11171144 11056 21117 58007 $
KAIA 220453Z AUTO 16010KT 10SM FEW120 M11/M13 A3021 RMK AO2 SLP297 T11061133 $
KAIA 220353Z AUTO 16011KT 10SM CLR M12/M14 A3022 RMK AO2 SLP318 T11171139 $
KAIA 212353Z AUTO 16014KT 10SM CLR M06/M11 A3019 RMK AO2 SLP313 T10561111 11033 21083 58004
KAIA 212253Z AUTO 17012KT 10SM CLR M04/M11 A3020 RMK AO2 SLP310 T10441106
KAIA 212153Z AUTO 17018KT 10SM CLR M04/M11 A3021 RMK AO2 SLP317 T10441106
KAIA 212053Z AUTO 17020KT 10SM CLR M04/M11 A3020 RMK AO2 PK WND 18026/2001 SLP317 T10391106 58019
KAIA 211953Z AUTO 18020KT 10SM CLR M04/M11 A3023 RMK AO2 PK WND 18027/1944 SLP318 T10391111
KAIA 211853Z AUTO 18014KT 10SM CLR M04/M12 A3026 RMK AO2 SLP331 T10441117